Lake Hughes, CA (93532)

1:31 PM PST on December 17, 2014 (GMT -0800)
TWDY | Change Station
CLOSE
Current Station
Personal Weather Station
Location: Lake Hughes, CA
Elevation: 3885 ft
Nearby Weather Stations
Active Advisory: Winter Weather Advisory

Elev 3885 ft 34.72 °N, 118.59 °W | Updated 11 minutes ago

Partly Cloudy
Partly Cloudy
42.9 °F
Feels Like 40 °F
N
5.0
Wind Variable Wind from NNW
Gusts 10.0 mph

Today
High -- | Low -- °F
--% Chance of Precip.
Yesterday
High -- | Low -- °F
Precip. -- in
6:55 AM 4:45 PM
Waning Crescent, 19% visible
Pressure 30.01 in
Visibility 10.0 miles
Clouds Few 500 ft
Windchill 40 °F
Dew Point 39 °F
Humidity 85%
Rainfall 0.23 in
Snow Depth Not available.
UV 3 out of 12
Pollen .90 out of 12
Air Quality Not available.
Flu Activity Not available.
METAR KSDB 172048Z AUTO 35017KT 10SM FEW005 06/02 A3005 RMK AO2 SLP163 T00560022 53001

More Conditions Fewer Conditions

Pressure 30.01 in
Visibility 10.0 miles
Clouds Few 500 ft
Windchill 40 °F
Dew Point 39 °F
Humidity 85%
Rainfall 0.23 in
Snow Depth Not available.
UV 3 out of 12
Pollen .90 out of 12
Air Quality Not available.
Flu Activity Not available.
METAR KSDB 172048Z AUTO 35017KT 10SM FEW005 06/02 A3005 RMK AO2 SLP163 T00560022 53001

More Conditions Fewer Conditions

10-Day Weather Forecast

Almanac

Astronomy

Dec. 17, 2014 Rise Set
Actual Time
Civil Twilight
Nautical Twilight
Astronomical Twilight
Moon
Length of Visible Light
Length of Day
Tomorrow will be .
, % of the Moon is Illuminated

Today's Extremes

State Highs State Lows

Community

WunderPhotos

Upload Photos

1,778,807 photos uploaded!

WunderBlogs® & News

Nearby

Air Quality

  Air Quality AQ Index Pollutant
Not available.

Snow Depth

Station Depth Elevation

Earthquake Activity

City Distance Mag. Time & Date
Minimum magnitude displayed is 2.5.

Coastal Water Temperatures

Place Temperature

Nearby Weather Stations